Harvest Peace — V7VE7 — position and weather

sailwx.info

Track history (hours):
 
Tides and Currents Weather Stations Pressure Air Temp Water Temp Dewpoint Dewpoint Depression Visibility Wind Speed Wind Dir Waves Ship Positions

Harvest Peace

Last reported at 2017-Aug-19 07:13 UTC. Time now 2017-Sep-21 10:49 UTC.
Position N 25°11' W 114°19'.
Warning: this ship's position is 33 days out of date.

Length 225 m; draft 7 m.

Type: Cargo ship. MMSI: 538004103.

Date/timePositionNaut miles runAvg speedWind from/ knotsBaromVisibWave heightAir tempDewpointWater temp
2017-Aug-19 07:13N 25°11' W 114°19'313.1
2017-Aug-19 06:59N 25°13' W 114°22'613.2
2017-Aug-19 06:30N 25°16' W 114°28'713.5
2017-Aug-19 05:58N 25°20' W 114°34'713.5
2017-Aug-19 05:27N 25°25' W 114°40'613.2
2017-Aug-19 05:00N 25°28' W 114°45'712.8
2017-Aug-19 04:28N 25°33' W 114°51'812.4
2017-Aug-19 03:50N 25°38' W 114°58'412.3
2017-Aug-19 03:30N 25°40' W 115°02'612.3
2017-Aug-19 03:00N 25°44' W 115°07'1512.4
2017-Aug-19 01:47N 25°53' W 115°20'312.1
2017-Aug-19 01:29N 25°56' W 115°23'612.0
2017-Aug-19 01:00N 25°59' W 115°28'612.2
2017-Aug-19 00:29N 26°03' W 115°34'612.5
2017-Aug-19 00:00N 26°07' W 115°39'712.7
2017-Aug-18 23:28N 26°11' W 115°45'612.4
2017-Aug-18 23:00N 26°15' W 115°50'612.5
2017-Aug-18 22:30N 26°19' W 115°55'612.6
2017-Aug-18 22:00N 26°23' W 116°01'1912.6
2017-Aug-18 20:30N 26°35' W 116°17'612.6
2017-Aug-18 20:00N 26°39' W 116°23'1112.6
2017-Aug-18 19:05N 26°46' W 116°33'312.7
2017-Aug-18 18:53N 26°47' W 116°35'7612.5
2017-Aug-18 12:48N 27°33' W 117°43'4312.7
2017-Aug-18 09:22N 27°60' W 118°22'1812.9
2017-Aug-18 08:00N 28°10' W 118°39'713.0
2017-Aug-18 07:29N 28°13' W 118°45'713.0
2017-Aug-18 06:56N 28°18' W 118°52'613.1
2017-Aug-18 06:30N 28°21' W 118°57'712.9
2017-Aug-18 06:00N 28°25' W 119°03'613.0
2017-Aug-18 05:30N 28°29' W 119°09'713.0
2017-Aug-18 05:00N 28°33' W 119°15'613.1
2017-Aug-18 04:30N 28°37' W 119°20'713.0
2017-Aug-18 04:00N 28°41' W 119°26'713.0
2017-Aug-18 03:30N 28°45' W 119°32'613.1
2017-Aug-18 03:00N 28°49' W 119°38'713.1
2017-Aug-18 02:30N 28°53' W 119°44'713.3
2017-Aug-18 02:00N 28°56' W 119°50'713.2
2017-Aug-18 01:30N 29°00' W 119°57'713.2
2017-Aug-18 01:01N 29°04' W 120°03'713.2
2017-Aug-18 00:30N 29°08' W 120°09'713.2
2017-Aug-18 00:00N 29°11' W 120°15'713.0
2017-Aug-17 23:30N 29°15' W 120°21'613.0
2017-Aug-17 23:00N 29°19' W 120°27'612.9
2017-Aug-17 22:30N 29°23' W 120°33'612.9
2017-Aug-17 22:00N 29°28' W 120°38'612.6
2017-Aug-17 21:30N 29°32' W 120°44'612.7
2017-Aug-17 21:00N 29°36' W 120°49'612.8
2017-Aug-17 20:30N 29°40' W 120°55'612.7
2017-Aug-17 20:00N 29°43' W 121°01'712.9
2017-Aug-17 19:27N 29°47' W 121°08'613.1
2017-Aug-17 19:00N 29°50' W 121°14'713.0
2017-Aug-17 18:30N 29°54' W 121°20'613.1
2017-Aug-17 18:00N 29°58' W 121°26'713.2
2017-Aug-17 17:30N 30°01' W 121°33'713.1
2017-Aug-17 17:00N 30°05' W 121°39'713.0
2017-Aug-17 16:30N 30°09' W 121°45'713.1
2017-Aug-17 16:00N 30°12' W 121°51'712.8
2017-Aug-17 15:29N 30°16' W 121°58'612.9
2017-Aug-17 15:00N 30°20' W 122°04'612.9
2017-Aug-17 14:30N 30°23' W 122°10'612.8
2017-Aug-17 14:00N 30°27' W 122°16'612.5
2017-Aug-17 13:30N 30°30' W 122°22'612.7
2017-Aug-17 13:00N 30°34' W 122°28'712.8
2017-Aug-17 12:30N 30°38' W 122°34'612.9
2017-Aug-17 12:00N 30°41' W 122°40'612.8
2017-Aug-17 11:30N 30°45' W 122°46'713.0
2017-Aug-17 11:00N 30°49' W 122°52'712.9
2017-Aug-17 10:27N 30°53' W 122°59'612.8
2017-Aug-17 10:00N 30°56' W 123°05'812.8
2017-Aug-17 09:22N 31°01' W 123°13'512.8
2017-Aug-17 09:00N 31°03' W 123°17'612.8
2017-Aug-17 08:30N 31°07' W 123°23'612.8
2017-Aug-17 08:00N 31°11' W 123°29'712.7
2017-Aug-17 07:29N 31°15' W 123°35'612.8
2017-Aug-17 07:00N 31°18' W 123°41'712.7
2017-Aug-17 06:27N 31°22' W 123°48'612.8
2017-Aug-17 06:00N 31°25' W 123°54'612.7
2017-Aug-17 05:30N 31°29' W 123°60'612.3
2017-Aug-17 05:00N 31°32' W 124°06'612.5
2017-Aug-17 04:30N 31°36' W 124°12'612.3
2017-Aug-17 04:00N 31°39' W 124°18'612.3
2017-Aug-17 03:30N 31°42' W 124°24'712.3
2017-Aug-17 02:56N 31°46' W 124°31'512.4
2017-Aug-17 02:30N 31°49' W 124°36'712.3
2017-Aug-17 01:59N 31°52' W 124°43'612.3
2017-Aug-17 01:30N 31°56' W 124°48'612.3
2017-Aug-17 01:00N 31°59' W 124°55'612.6
2017-Aug-17 00:30N 32°02' W 125°01'812.3
2017-Aug-16 23:54N 32°07' W 125°08'512.3
2017-Aug-16 23:30N 32°09' W 125°13'612.3
2017-Aug-16 23:00N 32°13' W 125°19'612.3
2017-Aug-16 22:30N 32°16' W 125°25'612.4
2017-Aug-16 22:00N 32°19' W 125°31'712.5
2017-Aug-16 21:25N 32°23' W 125°39'512.6
2017-Aug-16 21:00N 32°26' W 125°44'612.6
2017-Aug-16 20:30N 32°29' W 125°50'612.4
2017-Aug-16 20:00N 32°33' W 125°56'612.2
2017-Aug-16 19:30N 32°36' W 126°02'  
Track history (hours):
 
Tides and Currents Weather Stations Pressure Air Temp Water Temp Dewpoint Dewpoint Depression Visibility Wind Speed Wind Dir Waves Ship Positions

Harvest Peace

Last reported at 2017-Aug-19 07:13 UTC. Time now 2017-Sep-21 10:49 UTC.
Position N 25°11' W 114°19'.
Warning: this ship's position is 33 days out of date.

Length 225 m; draft 7 m.

Type: Cargo ship. MMSI: 538004103.

Date/timePositionNaut miles runAvg speedWind from/ knotsBaromVisibWave heightAir tempDewpointWater temp
2017-Aug-19 07:13N 25°11' W 114°19'313.1
2017-Aug-19 06:59N 25°13' W 114°22'613.2
2017-Aug-19 06:30N 25°16' W 114°28'713.5
2017-Aug-19 05:58N 25°20' W 114°34'713.5
2017-Aug-19 05:27N 25°25' W 114°40'613.2
2017-Aug-19 05:00N 25°28' W 114°45'712.8
2017-Aug-19 04:28N 25°33' W 114°51'812.4
2017-Aug-19 03:50N 25°38' W 114°58'412.3
2017-Aug-19 03:30N 25°40' W 115°02'612.3
2017-Aug-19 03:00N 25°44' W 115°07'1512.4
2017-Aug-19 01:47N 25°53' W 115°20'312.1
2017-Aug-19 01:29N 25°56' W 115°23'612.0
2017-Aug-19 01:00N 25°59' W 115°28'612.2
2017-Aug-19 00:29N 26°03' W 115°34'612.5
2017-Aug-19 00:00N 26°07' W 115°39'712.7
2017-Aug-18 23:28N 26°11' W 115°45'612.4
2017-Aug-18 23:00N 26°15' W 115°50'612.5
2017-Aug-18 22:30N 26°19' W 115°55'612.6
2017-Aug-18 22:00N 26°23' W 116°01'1912.6
2017-Aug-18 20:30N 26°35' W 116°17'612.6
2017-Aug-18 20:00N 26°39' W 116°23'1112.6
2017-Aug-18 19:05N 26°46' W 116°33'312.7
2017-Aug-18 18:53N 26°47' W 116°35'7612.5
2017-Aug-18 12:48N 27°33' W 117°43'4312.7
2017-Aug-18 09:22N 27°60' W 118°22'1812.9
2017-Aug-18 08:00N 28°10' W 118°39'713.0
2017-Aug-18 07:29N 28°13' W 118°45'713.0
2017-Aug-18 06:56N 28°18' W 118°52'613.1
2017-Aug-18 06:30N 28°21' W 118°57'712.9
2017-Aug-18 06:00N 28°25' W 119°03'613.0
2017-Aug-18 05:30N 28°29' W 119°09'713.0
2017-Aug-18 05:00N 28°33' W 119°15'613.1
2017-Aug-18 04:30N 28°37' W 119°20'713.0
2017-Aug-18 04:00N 28°41' W 119°26'713.0
2017-Aug-18 03:30N 28°45' W 119°32'613.1
2017-Aug-18 03:00N 28°49' W 119°38'713.1
2017-Aug-18 02:30N 28°53' W 119°44'713.3
2017-Aug-18 02:00N 28°56' W 119°50'713.2
2017-Aug-18 01:30N 29°00' W 119°57'713.2
2017-Aug-18 01:01N 29°04' W 120°03'713.2
2017-Aug-18 00:30N 29°08' W 120°09'713.2
2017-Aug-18 00:00N 29°11' W 120°15'713.0
2017-Aug-17 23:30N 29°15' W 120°21'613.0
2017-Aug-17 23:00N 29°19' W 120°27'612.9
2017-Aug-17 22:30N 29°23' W 120°33'612.9
2017-Aug-17 22:00N 29°28' W 120°38'612.6
2017-Aug-17 21:30N 29°32' W 120°44'612.7
2017-Aug-17 21:00N 29°36' W 120°49'612.8
2017-Aug-17 20:30N 29°40' W 120°55'612.7
2017-Aug-17 20:00N 29°43' W 121°01'712.9
2017-Aug-17 19:27N 29°47' W 121°08'613.1
2017-Aug-17 19:00N 29°50' W 121°14'713.0
2017-Aug-17 18:30N 29°54' W 121°20'613.1
2017-Aug-17 18:00N 29°58' W 121°26'713.2
2017-Aug-17 17:30N 30°01' W 121°33'713.1
2017-Aug-17 17:00N 30°05' W 121°39'713.0
2017-Aug-17 16:30N 30°09' W 121°45'713.1
2017-Aug-17 16:00N 30°12' W 121°51'712.8
2017-Aug-17 15:29N 30°16' W 121°58'612.9
2017-Aug-17 15:00N 30°20' W 122°04'612.9
2017-Aug-17 14:30N 30°23' W 122°10'612.8
2017-Aug-17 14:00N 30°27' W 122°16'612.5
2017-Aug-17 13:30N 30°30' W 122°22'612.7
2017-Aug-17 13:00N 30°34' W 122°28'712.8
2017-Aug-17 12:30N 30°38' W 122°34'612.9
2017-Aug-17 12:00N 30°41' W 122°40'612.8
2017-Aug-17 11:30N 30°45' W 122°46'713.0
2017-Aug-17 11:00N 30°49' W 122°52'712.9
2017-Aug-17 10:27N 30°53' W 122°59'612.8
2017-Aug-17 10:00N 30°56' W 123°05'812.8
2017-Aug-17 09:22N 31°01' W 123°13'512.8
2017-Aug-17 09:00N 31°03' W 123°17'612.8
2017-Aug-17 08:30N 31°07' W 123°23'612.8
2017-Aug-17 08:00N 31°11' W 123°29'712.7
2017-Aug-17 07:29N 31°15' W 123°35'612.8
2017-Aug-17 07:00N 31°18' W 123°41'712.7
2017-Aug-17 06:27N 31°22' W 123°48'612.8
2017-Aug-17 06:00N 31°25' W 123°54'612.7
2017-Aug-17 05:30N 31°29' W 123°60'612.3
2017-Aug-17 05:00N 31°32' W 124°06'612.5
2017-Aug-17 04:30N 31°36' W 124°12'612.3
2017-Aug-17 04:00N 31°39' W 124°18'612.3
2017-Aug-17 03:30N 31°42' W 124°24'712.3
2017-Aug-17 02:56N 31°46' W 124°31'512.4
2017-Aug-17 02:30N 31°49' W 124°36'712.3
2017-Aug-17 01:59N 31°52' W 124°43'612.3
2017-Aug-17 01:30N 31°56' W 124°48'612.3
2017-Aug-17 01:00N 31°59' W 124°55'612.6
2017-Aug-17 00:30N 32°02' W 125°01'812.3
2017-Aug-16 23:54N 32°07' W 125°08'512.3
2017-Aug-16 23:30N 32°09' W 125°13'612.3
2017-Aug-16 23:00N 32°13' W 125°19'612.3
2017-Aug-16 22:30N 32°16' W 125°25'612.4
2017-Aug-16 22:00N 32°19' W 125°31'712.5
2017-Aug-16 21:25N 32°23' W 125°39'512.6
2017-Aug-16 21:00N 32°26' W 125°44'612.6
2017-Aug-16 20:30N 32°29' W 125°50'612.4
2017-Aug-16 20:00N 32°33' W 125°56'612.2
2017-Aug-16 19:30N 32°36' W 126°02'  

Dump ship's entire track history